createdAt,value
2018-06-15T00:00:19.452Z,60.23
2018-06-15T00:03:23.030Z,62.30
2018-06-15T00:06:26.753Z,54.23
2018-06-15T00:09:30.549Z,55.40
2018-06-15T00:12:34.252Z,56.17
2018-06-15T00:15:37.900Z,58.70
2018-06-15T00:18:41.455Z,61.33
2018-06-15T00:21:45.083Z,55.77
2018-06-15T00:24:48.841Z,52.07
2018-06-15T00:27:52.490Z,58.60
2018-06-15T00:30:56.115Z,55.50
2018-06-15T00:33:59.734Z,54.53
2018-06-15T00:37:03.347Z,54.03
2018-06-15T00:40:06.938Z,53.57
2018-06-15T00:43:10.477Z,50.93
2018-06-15T00:46:14.328Z,51.60
2018-06-15T00:49:17.959Z,54.47
2018-06-15T00:52:21.557Z,60.23
2018-06-15T00:55:25.116Z,54.23
2018-06-15T00:58:28.756Z,58.03
2018-06-15T01:01:32.317Z,52.37
2018-06-15T01:04:35.967Z,53.77
2018-06-15T01:07:39.613Z,67.53
2018-06-15T01:10:43.207Z,58.63
2018-06-15T01:13:46.854Z,54.97
2018-06-15T01:16:50.467Z,65.40
2018-06-15T01:19:54.172Z,57.13
2018-06-15T01:22:57.708Z,59.33
2018-06-15T01:26:01.858Z,61.60
2018-06-15T01:29:05.512Z,70.23
2018-06-15T01:32:09.146Z,65.23
2018-06-15T01:35:12.851Z,64.83
2018-06-15T01:38:16.663Z,66.23
2018-06-15T01:41:20.262Z,69.63
2018-06-15T01:44:23.832Z,65.27
2018-06-15T01:47:27.481Z,64.20
2018-06-15T01:50:31.074Z,70.37
2018-06-15T01:53:34.707Z,71.43
2018-06-15T01:56:38.367Z,66.40
2018-06-15T01:59:42.008Z,64.53
2018-06-15T02:02:45.632Z,69.50
2018-06-15T02:05:49.310Z,67.50
2018-06-15T02:08:52.933Z,70.80
2018-06-15T02:11:56.540Z,64.47
2018-06-15T02:15:00.121Z,64.20
2018-06-15T02:18:03.833Z,65.10
2018-06-15T02:21:07.638Z,69.63
2018-06-15T02:24:11.379Z,64.13
2018-06-15T02:27:14.960Z,61.00
2018-06-15T02:30:18.550Z,70.20
2018-06-15T02:33:22.179Z,64.47
2018-06-15T02:36:25.905Z,69.93
2018-06-15T02:39:29.529Z,60.70
2018-06-15T02:42:33.503Z,70.50
2018-06-15T02:45:37.083Z,63.50
2018-06-15T02:48:40.662Z,63.13
2018-06-15T02:51:44.318Z,62.03
2018-06-15T02:54:47.965Z,57.73
2018-06-15T02:57:51.574Z,57.70
2018-06-15T03:00:55.204Z,62.37
2018-06-15T03:03:58.943Z,57.80
2018-06-15T03:07:02.533Z,55.67
2018-06-15T03:10:06.127Z,59.37
2018-06-15T03:13:09.733Z,58.43
2018-06-15T03:16:13.420Z,58.10
2018-06-15T03:19:17.104Z,61.50
2018-06-15T03:22:20.694Z,55.27
2018-06-15T03:25:24.387Z,60.23
2018-06-15T03:28:27.945Z,61.20
2018-06-15T03:31:31.537Z,58.43
2018-06-15T03:34:35.073Z,58.53
2018-06-15T03:37:38.685Z,65.93
2018-06-15T03:40:42.349Z,65.27
2018-06-15T03:43:45.999Z,61.60
2018-06-15T03:46:49.547Z,62.03
2018-06-15T03:49:53.112Z,55.43
2018-06-15T03:52:56.733Z,54.77
2018-06-15T03:56:00.273Z,59.00
2018-06-15T03:59:04.143Z,61.07
2018-06-15T04:02:07.780Z,61.93
2018-06-15T04:05:11.410Z,61.23
2018-06-15T04:08:15.169Z,62.80
2018-06-15T04:11:18.853Z,65.13
2018-06-15T04:14:22.480Z,61.97
2018-06-15T04:17:26.058Z,58.70
2018-06-15T04:20:29.811Z,62.83
2018-06-15T04:23:33.670Z,58.80
2018-06-15T04:26:37.202Z,64.50
2018-06-15T04:29:40.883Z,60.87
2018-06-15T04:32:44.449Z,60.87
2018-06-15T04:35:48.041Z,65.63
2018-06-15T04:38:51.560Z,57.27
2018-06-15T04:41:55.299Z,67.00
2018-06-15T04:44:58.927Z,64.10
2018-06-15T04:48:02.516Z,56.27
2018-06-15T04:51:06.261Z,61.37
2018-06-15T04:54:09.824Z,63.13
2018-06-15T04:57:13.451Z,49.83
2018-06-15T05:00:21.016Z,57.27
2018-06-15T05:03:24.687Z,52.17
2018-06-15T05:06:28.376Z,48.90
2018-06-15T05:09:31.985Z,49.27
2018-06-15T05:12:35.602Z,43.97
2018-06-15T05:15:39.196Z,44.97
2018-06-15T05:18:42.938Z,35.10
2018-06-15T05:21:47.409Z,35.37
2018-06-15T05:24:51.101Z,34.53
2018-06-15T05:27:54.686Z,36.00
2018-06-15T05:30:58.326Z,30.30
2018-06-15T05:34:02.010Z,33.87
2018-06-15T05:37:05.626Z,28.97
2018-06-15T05:40:09.231Z,29.27
2018-06-15T05:43:12.900Z,31.27
2018-06-15T05:46:16.449Z,27.60
2018-06-15T05:49:20.035Z,25.70
2018-06-15T05:52:23.620Z,28.90
2018-06-15T05:55:27.283Z,26.50
2018-06-15T05:58:30.958Z,29.03
2018-06-15T06:01:34.681Z,34.30
2018-06-15T06:04:38.470Z,35.60
2018-06-15T06:07:42.055Z,42.23
2018-06-15T06:10:45.889Z,35.67
2018-06-15T06:13:49.601Z,39.43
2018-06-15T06:16:53.242Z,40.43
2018-06-15T06:19:56.826Z,39.83
2018-06-15T06:23:00.442Z,34.73
2018-06-15T06:26:04.262Z,31.03
2018-06-15T06:29:07.900Z,37.90
2018-06-15T06:32:11.542Z,36.10
2018-06-15T06:35:15.122Z,32.30
2018-06-15T06:38:18.762Z,31.83
2018-06-15T06:41:22.504Z,34.20
2018-06-15T06:44:26.151Z,35.50
2018-06-15T06:47:29.736Z,33.17
2018-06-15T06:50:33.412Z,34.53
2018-06-15T06:53:37.043Z,33.30
2018-06-15T06:56:40.825Z,31.87
2018-06-15T06:59:44.463Z,31.10
2018-06-15T07:02:48.150Z,29.20
2018-06-15T07:05:51.714Z,30.77
2018-06-15T07:08:55.478Z,26.80
2018-06-15T07:11:59.227Z,30.60
2018-06-15T07:15:02.945Z,36.00
2018-06-15T07:18:06.656Z,30.07
2018-06-15T07:21:10.364Z,34.23
2018-06-15T07:24:14.099Z,29.03
2018-06-15T07:27:17.932Z,29.50
2018-06-15T07:30:21.566Z,32.37
2018-06-15T07:33:25.356Z,29.97
2018-06-15T07:36:28.954Z,28.13
2018-06-15T07:39:32.584Z,27.67
2018-06-15T07:42:36.373Z,28.27
2018-06-15T07:45:39.992Z,30.03
2018-06-15T07:48:43.647Z,30.73
2018-06-15T07:51:47.485Z,24.03
2018-06-15T07:54:51.227Z,26.50
2018-06-15T07:57:54.871Z,29.67
2018-06-15T08:00:58.506Z,25.63
2018-06-15T08:04:04.263Z,28.87
2018-06-15T08:07:07.993Z,26.13
2018-06-15T08:10:11.629Z,32.87
2018-06-15T08:13:15.315Z,23.97
2018-06-15T08:16:18.984Z,26.83
2018-06-15T08:19:22.613Z,27.00
2018-06-15T08:22:26.331Z,27.90
2018-06-15T08:25:30.352Z,27.67
2018-06-15T08:28:34.054Z,28.40
2018-06-15T08:31:37.586Z,24.87
2018-06-15T08:34:41.279Z,23.03
2018-06-15T08:37:44.912Z,29.40
2018-06-15T08:40:48.597Z,26.80
2018-06-15T08:43:52.182Z,28.03
2018-06-15T08:46:55.784Z,27.63
2018-06-15T08:49:59.542Z,29.77
2018-06-15T08:53:03.191Z,26.60
2018-06-15T08:56:07.044Z,28.67
2018-06-15T08:59:10.658Z,27.10
2018-06-15T09:02:14.263Z,23.90
2018-06-15T09:05:17.849Z,25.13
2018-06-15T09:08:21.552Z,29.30
2018-06-15T09:11:25.183Z,25.63
2018-06-15T09:14:32.301Z,24.30
2018-06-15T09:17:36.318Z,25.30
2018-06-15T09:20:39.896Z,26.13
2018-06-15T09:23:43.567Z,26.30
2018-06-15T09:26:47.215Z,23.90
2018-06-15T09:29:50.891Z,24.47
2018-06-15T09:32:54.514Z,27.73
2018-06-15T09:35:58.212Z,23.33
2018-06-15T09:39:01.802Z,23.00
2018-06-15T09:42:05.499Z,24.27
2018-06-15T09:45:09.234Z,20.03
2018-06-15T09:48:12.893Z,19.17
2018-06-15T09:51:16.612Z,22.53
2018-06-15T09:54:20.272Z,20.10
2018-06-15T09:57:24.037Z,19.50
2018-06-15T10:00:33.069Z,19.67
2018-06-15T10:03:37.508Z,17.33
2018-06-15T10:06:41.123Z,23.10
2018-06-15T10:09:44.749Z,19.83
2018-06-15T10:12:48.407Z,16.67
2018-06-15T10:15:52.322Z,18.20
2018-06-15T10:18:56.038Z,17.47
2018-06-15T10:21:59.627Z,20.87
2018-06-15T10:25:03.463Z,18.93
2018-06-15T10:28:07.127Z,15.70
2018-06-15T10:31:11.223Z,16.70
2018-06-15T10:34:15.063Z,14.13
2018-06-15T10:37:18.738Z,11.13
2018-06-15T10:40:22.329Z,9.27
2018-06-15T10:43:25.959Z,9.47
2018-06-15T10:46:29.644Z,8.37
2018-06-15T10:49:33.345Z,7.67
2018-06-15T10:52:37.066Z,7.43
2018-06-15T10:55:40.742Z,9.83
2018-06-15T10:58:44.435Z,9.53
2018-06-15T11:01:48.199Z,10.20
2018-06-15T11:04:51.828Z,16.67
2018-06-15T11:07:55.400Z,11.20
2018-06-15T11:10:59.140Z,6.80
2018-06-15T11:14:02.847Z,10.67
2018-06-15T11:17:06.548Z,13.20
2018-06-15T11:20:10.238Z,11.77
2018-06-15T11:23:13.988Z,12.00
2018-06-15T11:26:17.724Z,9.00
2018-06-15T11:29:21.309Z,12.30
2018-06-15T11:32:24.984Z,9.53
2018-06-15T11:35:28.640Z,12.27
2018-06-15T11:38:32.359Z,14.80
2018-06-15T11:41:36.036Z,7.87
2018-06-15T11:44:39.655Z,9.27
2018-06-15T11:47:43.344Z,8.13
2018-06-15T11:50:46.984Z,7.77
2018-06-15T11:53:50.719Z,7.40
2018-06-15T11:56:54.593Z,11.50
2018-06-15T11:59:58.345Z,8.47
2018-06-15T12:03:02.079Z,6.03
2018-06-15T12:06:05.726Z,7.43
2018-06-15T12:09:10.378Z,8.97
2018-06-15T12:12:14.051Z,7.83
2018-06-15T12:15:17.729Z,9.30
2018-06-15T12:18:21.366Z,7.00
2018-06-15T12:21:28.313Z,9.50
2018-06-15T12:24:32.194Z,7.90
2018-06-15T12:27:35.847Z,9.10
2018-06-15T12:30:39.507Z,7.60
2018-06-15T12:33:43.184Z,8.03
2018-06-15T12:36:46.949Z,12.90
2018-06-15T12:39:50.892Z,10.00
2018-06-15T12:42:54.659Z,14.10
2018-06-15T12:45:58.430Z,8.90
2018-06-15T12:49:02.208Z,7.80
2018-06-15T12:52:05.875Z,11.80
2018-06-15T12:55:09.462Z,8.53
2018-06-15T12:58:13.161Z,9.00
2018-06-15T13:01:16.825Z,11.07
2018-06-15T13:04:20.460Z,12.87
2018-06-15T13:07:24.135Z,11.37
2018-06-15T13:10:27.890Z,7.00
2018-06-15T13:13:31.507Z,11.60
2018-06-15T13:16:35.522Z,11.80
2018-06-15T13:19:39.165Z,11.17
2018-06-15T13:22:43.026Z,10.87
2018-06-15T13:25:46.734Z,14.20
2018-06-15T13:28:50.424Z,9.70
2018-06-15T13:31:54.120Z,10.43
2018-06-15T13:34:57.798Z,10.33
2018-06-15T13:38:01.502Z,8.43
2018-06-15T13:41:05.191Z,11.10
2018-06-15T13:44:08.884Z,11.30
2018-06-15T13:47:12.601Z,11.10
2018-06-15T13:50:16.302Z,8.63
2018-06-15T13:53:19.932Z,12.70
2018-06-15T13:56:23.540Z,10.10
2018-06-15T13:59:27.165Z,9.97
2018-06-15T14:02:30.796Z,9.53
2018-06-15T14:05:34.442Z,8.83
2018-06-15T14:08:38.337Z,7.83
2018-06-15T14:11:41.997Z,10.63
2018-06-15T14:14:45.686Z,10.77
2018-06-15T14:17:49.430Z,8.90
2018-06-15T14:20:53.321Z,9.43
2018-06-15T14:23:57.122Z,11.47
2018-06-15T14:27:00.894Z,12.50
2018-06-15T14:30:04.896Z,10.07
2018-06-15T14:33:08.601Z,10.23
2018-06-15T14:36:12.377Z,8.03
2018-06-15T14:39:16.871Z,10.97
2018-06-15T14:42:20.572Z,11.37
2018-06-15T14:45:24.196Z,10.33
2018-06-15T14:48:27.916Z,12.97
2018-06-15T14:51:31.661Z,12.90
2018-06-15T14:54:35.422Z,8.03
2018-06-15T14:57:39.167Z,10.33
2018-06-15T15:00:42.812Z,8.93
2018-06-15T15:03:46.492Z,11.43
2018-06-15T15:06:50.036Z,11.33
2018-06-15T15:09:53.703Z,13.33
2018-06-15T15:12:57.522Z,11.60
2018-06-15T15:16:01.264Z,13.00
2018-06-15T15:19:05.583Z,12.73
2018-06-15T15:22:09.125Z,10.30
2018-06-15T15:25:12.967Z,10.33
2018-06-15T15:28:16.692Z,8.70
2018-06-15T15:31:20.290Z,8.60
2018-06-15T15:34:23.857Z,9.43
2018-06-15T15:37:27.467Z,8.63
2018-06-15T15:40:31.317Z,10.27
2018-06-15T15:43:35.017Z,8.67
2018-06-15T15:46:38.736Z,9.53
2018-06-15T15:49:42.568Z,9.87
2018-06-15T15:52:46.194Z,8.83
2018-06-15T15:55:50.076Z,13.90
2018-06-15T15:58:53.945Z,10.23
2018-06-15T16:01:57.663Z,12.23
2018-06-15T16:05:01.969Z,10.77
2018-06-15T16:08:05.723Z,10.40
2018-06-15T16:11:09.398Z,10.07
2018-06-15T16:14:13.087Z,9.00
2018-06-15T16:17:16.852Z,8.67
2018-06-15T16:20:20.487Z,9.07
2018-06-15T16:23:24.307Z,11.77
2018-06-15T16:26:27.893Z,10.13
2018-06-15T16:29:31.780Z,11.33
2018-06-15T16:32:35.530Z,12.70
2018-06-15T16:35:39.184Z,11.37
2018-06-15T16:38:42.906Z,10.30
2018-06-15T16:41:46.743Z,9.30
2018-06-15T16:44:50.531Z,13.17
2018-06-15T16:47:54.174Z,10.00
2018-06-15T16:50:57.798Z,9.60
2018-06-15T16:54:01.434Z,10.57
2018-06-15T16:57:05.077Z,9.60
2018-06-15T17:00:08.744Z,9.73
2018-06-15T17:03:12.373Z,9.30
2018-06-15T17:06:16.079Z,9.30
2018-06-15T17:09:19.699Z,9.03
2018-06-15T17:12:23.381Z,10.53
2018-06-15T17:15:27.058Z,9.00
2018-06-15T17:18:30.837Z,10.57
2018-06-15T17:21:34.641Z,10.00
2018-06-15T17:24:38.504Z,10.03
2018-06-15T17:27:42.168Z,8.30
2018-06-15T17:30:45.748Z,8.73
2018-06-15T17:33:49.514Z,8.60
2018-06-15T17:36:53.460Z,9.30
2018-06-15T17:39:57.231Z,11.43
2018-06-15T17:43:01.019Z,9.33
2018-06-15T17:46:05.104Z,8.53
2018-06-15T17:49:09.444Z,8.73
2018-06-15T17:52:13.125Z,7.87
2018-06-15T17:55:16.823Z,10.77
2018-06-15T17:58:20.410Z,8.77
2018-06-15T18:01:24.143Z,8.53
2018-06-15T18:04:27.777Z,9.90
2018-06-15T18:07:31.824Z,8.53
2018-06-15T18:10:35.570Z,12.80
2018-06-15T18:13:39.216Z,10.80
2018-06-15T18:16:42.927Z,9.20
2018-06-15T18:19:46.720Z,9.80
2018-06-15T18:22:50.379Z,9.47
2018-06-15T18:25:54.090Z,9.50
2018-06-15T18:28:57.852Z,9.40
2018-06-15T18:32:01.643Z,9.60
2018-06-15T18:35:05.468Z,14.13
2018-06-15T18:38:09.128Z,11.47
2018-06-15T18:41:12.770Z,10.17
2018-06-15T18:44:16.435Z,9.90
2018-06-15T18:47:20.044Z,11.30
2018-06-15T18:50:23.729Z,11.87
2018-06-15T18:53:27.557Z,11.47
2018-06-15T18:56:31.330Z,10.93
2018-06-15T18:59:35.308Z,11.50
2018-06-15T19:02:39.179Z,11.43
2018-06-15T19:05:42.923Z,12.57
2018-06-15T19:08:46.534Z,10.60
2018-06-15T19:11:50.143Z,12.53
2018-06-15T19:14:54.051Z,10.80
2018-06-15T19:17:57.725Z,10.37
2018-06-15T19:21:01.384Z,12.60
2018-06-15T19:24:05.171Z,12.13
2018-06-15T19:27:09.138Z,13.20
2018-06-15T19:30:12.839Z,16.33
2018-06-15T19:33:16.560Z,14.30
2018-06-15T19:36:20.258Z,12.77
2018-06-15T19:39:23.903Z,14.10
2018-06-15T19:42:27.640Z,12.60
2018-06-15T19:45:31.211Z,13.30
2018-06-15T19:48:34.976Z,12.93
2018-06-15T19:51:38.686Z,13.27
2018-06-15T19:54:42.821Z,13.00
2018-06-15T19:57:46.589Z,15.03
2018-06-15T20:00:50.318Z,14.07
2018-06-15T20:03:54.291Z,13.53
2018-06-15T20:06:58.030Z,12.80
2018-06-15T20:10:01.751Z,13.57
2018-06-15T20:13:05.609Z,13.03
2018-06-15T20:16:09.763Z,17.93
2018-06-15T20:19:13.495Z,14.10
2018-06-15T20:22:17.193Z,12.03
2018-06-15T20:25:21.064Z,12.80
2018-06-15T20:28:24.846Z,12.57
2018-06-15T20:31:28.602Z,12.07
2018-06-15T20:34:32.340Z,14.93
2018-06-15T20:37:36.083Z,13.27
2018-06-15T20:40:39.864Z,16.67
2018-06-15T20:43:43.614Z,16.00
2018-06-15T20:46:47.249Z,12.93
2018-06-15T20:49:50.930Z,13.93
2018-06-15T20:52:54.851Z,11.97
2018-06-15T20:55:58.612Z,13.70
2018-06-15T20:59:02.342Z,13.47
2018-06-15T21:02:06.130Z,13.77
2018-06-15T21:05:09.836Z,14.20
2018-06-15T21:08:13.555Z,13.60
2018-06-15T21:11:17.341Z,12.57
2018-06-15T21:14:21.054Z,14.43
2018-06-15T21:17:24.729Z,14.27
2018-06-15T21:20:28.425Z,11.53
2018-06-15T21:23:32.251Z,14.20
2018-06-15T21:26:35.957Z,13.83
2018-06-15T21:29:39.660Z,14.70
2018-06-15T21:32:43.450Z,14.40
2018-06-15T21:35:47.146Z,13.73
2018-06-15T21:38:50.725Z,12.97
2018-06-15T21:41:54.500Z,11.37
2018-06-15T21:44:58.179Z,12.10
2018-06-15T21:48:01.875Z,13.07
2018-06-15T21:51:05.652Z,12.50
2018-06-15T21:54:09.314Z,14.90
2018-06-15T21:57:12.999Z,14.80
2018-06-15T22:00:16.757Z,12.50
2018-06-15T22:03:20.376Z,13.33
2018-06-15T22:06:23.974Z,16.97
2018-06-15T22:09:31.523Z,14.17
2018-06-15T22:12:36.434Z,12.87
2018-06-15T22:15:41.169Z,14.17
2018-06-15T22:18:46.451Z,14.30
2018-06-15T22:21:53.087Z,15.13
2018-06-15T22:24:57.611Z,15.97
2018-06-15T22:28:01.261Z,14.10
2018-06-15T22:31:04.907Z,12.70
2018-06-15T22:34:08.516Z,12.53
2018-06-15T22:37:12.144Z,12.43
2018-06-15T22:40:15.754Z,12.70
2018-06-15T22:43:19.420Z,13.43
2018-06-15T22:46:23.502Z,13.67
2018-06-15T22:49:27.260Z,11.30
2018-06-15T22:52:31.030Z,12.13
2018-06-15T22:55:34.821Z,14.50
2018-06-15T22:58:38.415Z,10.93
2018-06-15T23:01:42.007Z,12.63
2018-06-15T23:04:45.865Z,12.83
2018-06-15T23:07:49.530Z,15.10
2018-06-15T23:10:53.265Z,12.20
2018-06-15T23:13:56.981Z,13.13
2018-06-15T23:17:00.551Z,12.30
2018-06-15T23:20:04.197Z,12.40
2018-06-15T23:23:07.855Z,13.93
2018-06-15T23:26:11.591Z,14.20
2018-06-15T23:29:15.301Z,12.90
2018-06-15T23:32:19.012Z,14.43
2018-06-15T23:35:22.625Z,11.27
2018-06-15T23:38:26.287Z,13.73
2018-06-15T23:41:29.912Z,12.67
2018-06-15T23:44:33.481Z,12.10
2018-06-15T23:47:37.115Z,14.23
2018-06-15T23:50:40.722Z,13.70
2018-06-15T23:53:44.473Z,12.60
2018-06-15T23:56:48.161Z,12.07
2018-06-15T23:59:51.752Z,12.00
